Atmautluak, Alaska
Current Conditions -  °F | °C
As of 3:53 AM on Saturday 25 Oct 2014 (Local Time) from PABE Reporting Station
Clear Clear  
Wind Chill: 14°   Ceiling: Unl
Heat Index: 25°   Visibility: 10mi
Dew Point: 21°   Wind: 12mph
Humidity: 85%   Direction: 170°S
Pressure: 29.92"   Gusts: NA
Location:  60.7494°N, 161.727°W
Report Text: PABE 251153Z 17010KT 10SM CLR M04/M06 A2992 RMK AO2 SLP135 T10391061 11017 21039 58012
Loading
Personal Weather Stations






























Interactive Weather Map
Tropical Storm Tracking
New forecast layout! Learn more

10-Day Weather Forecast

Advertisements
Track Severe Weather on mobile